sensor_id;sensor_type;location;lat;lon;timestamp;temperature;humidity
23591;DHT22;11973;52.098;7.582;2024-02-21T00:00:46;8.90;99.90
23591;DHT22;11973;52.098;7.582;2024-02-21T00:03:12;8.90;99.90
23591;DHT22;11973;52.098;7.582;2024-02-21T00:05:38;8.90;99.90
23591;DHT22;11973;52.098;7.582;2024-02-21T00:08:04;8.90;99.90
23591;DHT22;11973;52.098;7.582;2024-02-21T00:10:29;8.90;99.90
23591;DHT22;11973;52.098;7.582;2024-02-21T00:12:57;8.90;99.90
23591;DHT22;11973;52.098;7.582;2024-02-21T00:15:25;8.90;99.90
23591;DHT22;11973;52.098;7.582;2024-02-21T00:17:50;8.90;99.90
23591;DHT22;11973;52.098;7.582;2024-02-21T00:20:16;8.90;99.90
23591;DHT22;11973;52.098;7.582;2024-02-21T00:22:43;8.90;99.90
23591;DHT22;11973;52.098;7.582;2024-02-21T00:25:10;8.90;99.90
23591;DHT22;11973;52.098;7.582;2024-02-21T00:27:35;8.90;99.90
23591;DHT22;11973;52.098;7.582;2024-02-21T00:30:02;8.90;99.90
23591;DHT22;11973;52.098;7.582;2024-02-21T05:17:29;8.90;99.90
23591;DHT22;11973;52.098;7.582;2024-02-21T05:19:55;8.90;99.90
23591;DHT22;11973;52.098;7.582;2024-02-21T05:22:21;8.90;99.90
23591;DHT22;11973;52.098;7.582;2024-02-21T05:24:46;8.90;99.90
23591;DHT22;11973;52.098;7.582;2024-02-21T05:27:12;8.90;99.90
23591;DHT22;11973;52.098;7.582;2024-02-21T05:29:38;8.90;99.90
23591;DHT22;11973;52.098;7.582;2024-02-21T05:32:04;8.90;99.90
23591;DHT22;11973;52.098;7.582;2024-02-21T05:34:30;8.90;99.90
23591;DHT22;11973;52.098;7.582;2024-02-21T05:36:56;8.90;99.90
23591;DHT22;11973;52.098;7.582;2024-02-21T05:39:23;8.90;99.90
23591;DHT22;11973;52.098;7.582;2024-02-21T05:41:49;8.90;99.90
23591;DHT22;11973;52.098;7.582;2024-02-21T05:44:16;8.90;99.90
23591;DHT22;11973;52.098;7.582;2024-02-21T05:46:42;8.90;99.90
23591;DHT22;11973;52.098;7.582;2024-02-21T05:49:08;8.90;99.90
23591;DHT22;11973;52.098;7.582;2024-02-21T05:51:34;8.90;99.90
23591;DHT22;11973;52.098;7.582;2024-02-21T05:54:00;8.90;99.90
23591;DHT22;11973;52.098;7.582;2024-02-21T05:56:26;8.90;99.90
23591;DHT22;11973;52.098;7.582;2024-02-21T05:58:52;8.90;99.90
23591;DHT22;11973;52.098;7.582;2024-02-21T06:01:17;8.90;99.90
23591;DHT22;11973;52.098;7.582;2024-02-21T06:03:43;8.90;99.90
23591;DHT22;11973;52.098;7.582;2024-02-21T06:06:09;8.90;99.90
23591;DHT22;11973;52.098;7.582;2024-02-21T06:08:35;8.90;99.90
23591;DHT22;11973;52.098;7.582;2024-02-21T06:11:00;8.90;99.90
23591;DHT22;11973;52.098;7.582;2024-02-21T06:13:27;8.90;99.90
23591;DHT22;11973;52.098;7.582;2024-02-21T06:15:53;8.90;99.90
23591;DHT22;11973;52.098;7.582;2024-02-21T06:18:19;8.90;99.90
23591;DHT22;11973;52.098;7.582;2024-02-21T06:20:45;8.80;99.90
23591;DHT22;11973;52.098;7.582;2024-02-21T06:23:16;8.80;99.90
23591;DHT22;11973;52.098;7.582;2024-02-21T06:25:42;8.90;99.90
23591;DHT22;11973;52.098;7.582;2024-02-21T06:28:08;8.80;99.90
23591;DHT22;11973;52.098;7.582;2024-02-21T06:30:35;8.80;99.90
23591;DHT22;11973;52.098;7.582;2024-02-21T06:33:01;8.80;99.90
23591;DHT22;11973;52.098;7.582;2024-02-21T06:35:28;8.80;99.90
23591;DHT22;11973;52.098;7.582;2024-02-21T06:37:54;8.80;99.90
23591;DHT22;11973;52.098;7.582;2024-02-21T06:40:23;8.80;99.90
23591;DHT22;11973;52.098;7.582;2024-02-21T06:42:50;8.80;99.90
23591;DHT22;11973;52.098;7.582;2024-02-21T06:45:16;8.80;99.90
23591;DHT22;11973;52.098;7.582;2024-02-21T06:47:42;8.80;99.90
23591;DHT22;11973;52.098;7.582;2024-02-21T06:50:09;8.80;99.90
23591;DHT22;11973;52.098;7.582;2024-02-21T06:52:36;8.80;99.90
23591;DHT22;11973;52.098;7.582;2024-02-21T06:55:02;8.90;99.90
23591;DHT22;11973;52.098;7.582;2024-02-21T06:57:31;8.90;99.90
23591;DHT22;11973;52.098;7.582;2024-02-21T06:59:56;8.90;99.90
23591;DHT22;11973;52.098;7.582;2024-02-21T07:02:22;8.90;99.90
23591;DHT22;11973;52.098;7.582;2024-02-21T07:04:48;8.90;99.90
23591;DHT22;11973;52.098;7.582;2024-02-21T07:07:15;8.90;99.90
23591;DHT22;11973;52.098;7.582;2024-02-21T07:09:40;8.90;99.90
23591;DHT22;11973;52.098;7.582;2024-02-21T07:12:07;8.90;99.90
23591;DHT22;11973;52.098;7.582;2024-02-21T07:14:33;9.00;99.90
23591;DHT22;11973;52.098;7.582;2024-02-21T07:16:59;9.00;99.90
23591;DHT22;11973;52.098;7.582;2024-02-21T07:19:24;9.00;99.90
23591;DHT22;11973;52.098;7.582;2024-02-21T07:21:50;9.00;99.90
23591;DHT22;11973;52.098;7.582;2024-02-21T07:24:16;9.00;99.90
23591;DHT22;11973;52.098;7.582;2024-02-21T07:26:43;9.10;99.90
23591;DHT22;11973;52.098;7.582;2024-02-21T07:29:08;9.10;99.90
23591;DHT22;11973;52.098;7.582;2024-02-21T07:31:44;9.10;99.90
23591;DHT22;11973;52.098;7.582;2024-02-21T07:34:10;9.10;99.90
23591;DHT22;11973;52.098;7.582;2024-02-21T07:36:36;9.20;99.90
23591;DHT22;11973;52.098;7.582;2024-02-21T07:39:05;9.20;99.90
23591;DHT22;11973;52.098;7.582;2024-02-21T07:41:31;9.20;99.90
23591;DHT22;11973;52.098;7.582;2024-02-21T07:43:57;9.20;99.90
23591;DHT22;11973;52.098;7.582;2024-02-21T07:46:23;9.20;99.90
23591;DHT22;11973;52.098;7.582;2024-02-21T07:48:49;9.20;99.90
23591;DHT22;11973;52.098;7.582;2024-02-21T07:51:15;9.20;99.90
23591;DHT22;11973;52.098;7.582;2024-02-21T07:53:45;9.30;99.90
23591;DHT22;11973;52.098;7.582;2024-02-21T07:56:15;9.30;99.90
23591;DHT22;11973;52.098;7.582;2024-02-21T07:58:41;9.30;99.90
23591;DHT22;11973;52.098;7.582;2024-02-21T08:01:07;9.30;99.90
23591;DHT22;11973;52.098;7.582;2024-02-21T08:03:33;9.40;99.90
23591;DHT22;11973;52.098;7.582;2024-02-21T08:05:59;9.50;99.90
23591;DHT22;11973;52.098;7.582;2024-02-21T08:08:25;9.60;99.90
23591;DHT22;11973;52.098;7.582;2024-02-21T08:10:52;9.60;99.90
23591;DHT22;11973;52.098;7.582;2024-02-21T08:13:17;9.60;99.90
23591;DHT22;11973;52.098;7.582;2024-02-21T08:15:43;9.70;99.90
23591;DHT22;11973;52.098;7.582;2024-02-21T08:18:09;9.70;99.90
23591;DHT22;11973;52.098;7.582;2024-02-21T08:20:35;9.80;99.90
23591;DHT22;11973;52.098;7.582;2024-02-21T08:23:01;9.80;99.90
23591;DHT22;11973;52.098;7.582;2024-02-21T08:25:27;9.80;99.90
23591;DHT22;11973;52.098;7.582;2024-02-21T08:27:58;9.90;99.90
23591;DHT22;11973;52.098;7.582;2024-02-21T08:30:24;9.90;99.90
23591;DHT22;11973;52.098;7.582;2024-02-21T08:32:50;9.90;99.90
23591;DHT22;11973;52.098;7.582;2024-02-21T08:35:16;9.90;99.90
23591;DHT22;11973;52.098;7.582;2024-02-21T08:37:44;9.90;99.90
23591;DHT22;11973;52.098;7.582;2024-02-21T08:40:10;10.00;99.90
23591;DHT22;11973;52.098;7.582;2024-02-21T08:42:38;10.00;99.90
23591;DHT22;11973;52.098;7.582;2024-02-21T08:45:05;10.00;99.90
23591;DHT22;11973;52.098;7.582;2024-02-21T08:47:30;10.10;99.90
23591;DHT22;11973;52.098;7.582;2024-02-21T08:49:56;10.10;99.90
23591;DHT22;11973;52.098;7.582;2024-02-21T08:52:22;10.20;99.90
23591;DHT22;11973;52.098;7.582;2024-02-21T08:54:48;10.20;99.90
23591;DHT22;11973;52.098;7.582;2024-02-21T08:57:14;10.30;99.90
23591;DHT22;11973;52.098;7.582;2024-02-21T08:59:40;10.30;99.90
23591;DHT22;11973;52.098;7.582;2024-02-21T09:02:06;10.40;99.90
23591;DHT22;11973;52.098;7.582;2024-02-21T09:04:33;10.40;99.90
23591;DHT22;11973;52.098;7.582;2024-02-21T09:06:59;10.50;99.90
23591;DHT22;11973;52.098;7.582;2024-02-21T09:09:25;10.60;99.90
23591;DHT22;11973;52.098;7.582;2024-02-21T09:11:51;10.60;99.90
23591;DHT22;11973;52.098;7.582;2024-02-21T09:14:17;10.70;99.90
23591;DHT22;11973;52.098;7.582;2024-02-21T09:16:43;10.70;99.90
23591;DHT22;11973;52.098;7.582;2024-02-21T09:19:09;10.80;99.90
23591;DHT22;11973;52.098;7.582;2024-02-21T09:21:39;10.90;99.90
23591;DHT22;11973;52.098;7.582;2024-02-21T09:24:05;10.90;99.90
23591;DHT22;11973;52.098;7.582;2024-02-21T09:26:32;11.00;99.90
23591;DHT22;11973;52.098;7.582;2024-02-21T09:28:57;11.00;99.90
23591;DHT22;11973;52.098;7.582;2024-02-21T09:31:23;11.10;99.90
23591;DHT22;11973;52.098;7.582;2024-02-21T09:33:49;11.10;99.90
23591;DHT22;11973;52.098;7.582;2024-02-21T09:36:15;11.10;99.90
23591;DHT22;11973;52.098;7.582;2024-02-21T09:38:40;11.10;99.90
23591;DHT22;11973;52.098;7.582;2024-02-21T09:41:24;11.10;99.90
23591;DHT22;11973;52.098;7.582;2024-02-21T09:43:50;11.10;99.90
23591;DHT22;11973;52.098;7.582;2024-02-21T09:46:19;11.10;99.90
23591;DHT22;11973;52.098;7.582;2024-02-21T09:51:35;11.10;99.90
23591;DHT22;11973;52.098;7.582;2024-02-21T09:54:03;11.20;99.90
23591;DHT22;11973;52.098;7.582;2024-02-21T09:56:28;11.20;99.90
23591;DHT22;11973;52.098;7.582;2024-02-21T09:58:54;11.20;99.90
23591;DHT22;11973;52.098;7.582;2024-02-21T10:01:21;11.20;99.90
23591;DHT22;11973;52.098;7.582;2024-02-21T10:03:46;11.20;99.90
23591;DHT22;11973;52.098;7.582;2024-02-21T10:06:13;11.20;99.90
23591;DHT22;11973;52.098;7.582;2024-02-21T10:08:39;11.20;99.90
23591;DHT22;11973;52.098;7.582;2024-02-21T10:11:04;11.20;99.90
23591;DHT22;11973;52.098;7.582;2024-02-21T10:13:30;11.30;99.90
23591;DHT22;11973;52.098;7.582;2024-02-21T10:16:07;11.30;99.90
23591;DHT22;11973;52.098;7.582;2024-02-21T10:18:34;11.30;99.90
23591;DHT22;11973;52.098;7.582;2024-02-21T10:21:07;11.40;99.90
23591;DHT22;11973;52.098;7.582;2024-02-21T10:26:08;11.50;99.90
23591;DHT22;11973;52.098;7.582;2024-02-21T10:28:34;11.50;99.90
23591;DHT22;11973;52.098;7.582;2024-02-21T10:31:00;11.50;99.90
23591;DHT22;11973;52.098;7.582;2024-02-21T10:33:26;11.60;99.90
23591;DHT22;11973;52.098;7.582;2024-02-21T10:35:53;11.60;99.90
23591;DHT22;11973;52.098;7.582;2024-02-21T10:38:19;11.60;99.90
23591;DHT22;11973;52.098;7.582;2024-02-21T10:40:46;11.70;99.90
23591;DHT22;11973;52.098;7.582;2024-02-21T10:43:14;11.70;99.90
23591;DHT22;11973;52.098;7.582;2024-02-21T10:45:41;11.70;99.90
23591;DHT22;11973;52.098;7.582;2024-02-21T10:48:14;11.80;99.90
23591;DHT22;11973;52.098;7.582;2024-02-21T10:51:02;11.80;99.90
23591;DHT22;11973;52.098;7.582;2024-02-21T10:58:38;11.90;99.90
23591;DHT22;11973;52.098;7.582;2024-02-21T11:01:05;11.90;99.90
23591;DHT22;11973;52.098;7.582;2024-02-21T11:03:31;12.00;99.90
23591;DHT22;11973;52.098;7.582;2024-02-21T11:05:58;12.00;99.90
23591;DHT22;11973;52.098;7.582;2024-02-21T11:08:24;12.10;99.90
23591;DHT22;11973;52.098;7.582;2024-02-21T11:10:57;12.10;99.90
23591;DHT22;11973;52.098;7.582;2024-02-21T11:13:37;12.10;99.90
23591;DHT22;11973;52.098;7.582;2024-02-21T11:16:10;12.10;99.90
23591;DHT22;11973;52.098;7.582;2024-02-21T11:18:39;12.10;99.90
23591;DHT22;11973;52.098;7.582;2024-02-21T11:21:05;12.10;99.90
23591;DHT22;11973;52.098;7.582;2024-02-21T11:23:31;12.10;99.90
23591;DHT22;11973;52.098;7.582;2024-02-21T11:26:07;12.10;99.90
23591;DHT22;11973;52.098;7.582;2024-02-21T11:28:33;12.10;99.90
23591;DHT22;11973;52.098;7.582;2024-02-21T11:31:10;12.10;99.90
23591;DHT22;11973;52.098;7.582;2024-02-21T11:33:40;12.10;99.90
23591;DHT22;11973;52.098;7.582;2024-02-21T11:36:06;12.10;99.90
23591;DHT22;11973;52.098;7.582;2024-02-21T11:38:32;12.00;99.90
23591;DHT22;11973;52.098;7.582;2024-02-21T11:43:49;11.90;99.90
23591;DHT22;11973;52.098;7.582;2024-02-21T11:46:16;11.80;99.90
23591;DHT22;11973;52.098;7.582;2024-02-21T11:48:42;11.70;99.90
23591;DHT22;11973;52.098;7.582;2024-02-21T11:51:30;11.60;99.90
23591;DHT22;11973;52.098;7.582;2024-02-21T11:53:55;11.50;99.90
23591;DHT22;11973;52.098;7.582;2024-02-21T11:56:21;11.50;99.90
23591;DHT22;11973;52.098;7.582;2024-02-21T11:58:48;11.50;99.90
23591;DHT22;11973;52.098;7.582;2024-02-21T12:01:15;11.50;99.90
23591;DHT22;11973;52.098;7.582;2024-02-21T12:03:42;11.60;99.90
23591;DHT22;11973;52.098;7.582;2024-02-21T12:06:08;11.70;99.90
23591;DHT22;11973;52.098;7.582;2024-02-21T12:08:43;11.70;99.90
23591;DHT22;11973;52.098;7.582;2024-02-21T12:11:17;11.70;99.90
23591;DHT22;11973;52.098;7.582;2024-02-21T12:13:43;11.70;99.90
23591;DHT22;11973;52.098;7.582;2024-02-21T12:16:09;11.60;99.90
23591;DHT22;11973;52.098;7.582;2024-02-21T12:18:35;11.60;99.90
23591;DHT22;11973;52.098;7.582;2024-02-21T12:21:01;11.50;99.90
23591;DHT22;11973;52.098;7.582;2024-02-21T12:23:27;11.40;99.90
23591;DHT22;11973;52.098;7.582;2024-02-21T12:25:53;11.40;99.90
23591;DHT22;11973;52.098;7.582;2024-02-21T12:28:21;11.30;99.90
23591;DHT22;11973;52.098;7.582;2024-02-21T12:30:47;11.30;99.90
23591;DHT22;11973;52.098;7.582;2024-02-21T12:33:13;11.30;99.90
23591;DHT22;11973;52.098;7.582;2024-02-21T12:35:41;11.30;99.90
23591;DHT22;11973;52.098;7.582;2024-02-21T12:38:07;11.30;99.90
23591;DHT22;11973;52.098;7.582;2024-02-21T12:40:33;11.30;99.90
23591;DHT22;11973;52.098;7.582;2024-02-21T12:43:02;11.40;99.90
23591;DHT22;11973;52.098;7.582;2024-02-21T12:45:28;11.40;99.90
23591;DHT22;11973;52.098;7.582;2024-02-21T12:47:54;11.50;99.90
23591;DHT22;11973;52.098;7.582;2024-02-21T12:50:20;11.50;99.90
23591;DHT22;11973;52.098;7.582;2024-02-21T12:52:48;11.60;99.90
23591;DHT22;11973;52.098;7.582;2024-02-21T12:55:15;11.70;99.90
23591;DHT22;11973;52.098;7.582;2024-02-21T12:57:42;11.70;99.90
23591;DHT22;11973;52.098;7.582;2024-02-21T13:00:08;11.70;99.90
23591;DHT22;11973;52.098;7.582;2024-02-21T13:02:37;11.70;99.90
23591;DHT22;11973;52.098;7.582;2024-02-21T13:05:04;11.80;99.90
23591;DHT22;11973;52.098;7.582;2024-02-21T13:07:31;11.80;99.90
23591;DHT22;11973;52.098;7.582;2024-02-21T13:09:58;11.80;99.90
23591;DHT22;11973;52.098;7.582;2024-02-21T13:12:24;11.90;99.90
23591;DHT22;11973;52.098;7.582;2024-02-21T13:14:51;11.90;99.90
23591;DHT22;11973;52.098;7.582;2024-02-21T13:17:17;12.00;99.90
23591;DHT22;11973;52.098;7.582;2024-02-21T13:19:43;12.00;99.90
23591;DHT22;11973;52.098;7.582;2024-02-21T13:22:09;12.00;99.90
23591;DHT22;11973;52.098;7.582;2024-02-21T13:24:35;12.00;99.90
23591;DHT22;11973;52.098;7.582;2024-02-21T13:27:00;12.00;99.90
23591;DHT22;11973;52.098;7.582;2024-02-21T13:29:27;12.00;99.90
23591;DHT22;11973;52.098;7.582;2024-02-21T13:31:54;12.00;99.90
23591;DHT22;11973;52.098;7.582;2024-02-21T13:34:19;12.00;99.90
23591;DHT22;11973;52.098;7.582;2024-02-21T13:36:45;12.00;99.90
23591;DHT22;11973;52.098;7.582;2024-02-21T13:39:11;12.10;99.90
23591;DHT22;11973;52.098;7.582;2024-02-21T13:41:42;12.10;99.90
23591;DHT22;11973;52.098;7.582;2024-02-21T13:44:08;12.10;99.90
23591;DHT22;11973;52.098;7.582;2024-02-21T13:46:35;12.10;99.90
23591;DHT22;11973;52.098;7.582;2024-02-21T13:49:05;12.10;99.90
23591;DHT22;11973;52.098;7.582;2024-02-21T13:51:32;12.10;99.90
23591;DHT22;11973;52.098;7.582;2024-02-21T13:53:59;12.10;99.90
23591;DHT22;11973;52.098;7.582;2024-02-21T13:56:24;12.20;99.90
23591;DHT22;11973;52.098;7.582;2024-02-21T13:58:50;12.20;99.90
23591;DHT22;11973;52.098;7.582;2024-02-21T14:01:17;12.20;99.90
23591;DHT22;11973;52.098;7.582;2024-02-21T14:03:43;12.30;99.90
23591;DHT22;11973;52.098;7.582;2024-02-21T14:06:10;12.30;99.90
23591;DHT22;11973;52.098;7.582;2024-02-21T14:08:37;12.40;99.90
23591;DHT22;11973;52.098;7.582;2024-02-21T14:11:06;12.30;99.90
23591;DHT22;11973;52.098;7.582;2024-02-21T14:13:32;12.40;99.90
23591;DHT22;11973;52.098;7.582;2024-02-21T14:15:57;12.40;99.90
23591;DHT22;11973;52.098;7.582;2024-02-21T14:18:23;12.40;99.90
23591;DHT22;11973;52.098;7.582;2024-02-21T14:20:49;12.30;99.90
23591;DHT22;11973;52.098;7.582;2024-02-21T14:23:15;12.30;99.90
23591;DHT22;11973;52.098;7.582;2024-02-21T14:25:40;12.30;99.90
23591;DHT22;11973;52.098;7.582;2024-02-21T14:28:08;12.20;99.90
23591;DHT22;11973;52.098;7.582;2024-02-21T14:30:36;12.20;99.90
23591;DHT22;11973;52.098;7.582;2024-02-21T14:33:02;12.20;99.90
23591;DHT22;11973;52.098;7.582;2024-02-21T14:35:28;12.10;99.90
23591;DHT22;11973;52.098;7.582;2024-02-21T14:37:54;12.10;99.90
23591;DHT22;11973;52.098;7.582;2024-02-21T14:40:22;12.00;99.90
23591;DHT22;11973;52.098;7.582;2024-02-21T14:42:48;12.00;99.90
23591;DHT22;11973;52.098;7.582;2024-02-21T14:45:14;12.00;99.90
23591;DHT22;11973;52.098;7.582;2024-02-21T14:47:40;12.00;99.90
23591;DHT22;11973;52.098;7.582;2024-02-21T14:50:06;12.00;99.90
23591;DHT22;11973;52.098;7.582;2024-02-21T14:52:32;12.00;99.90
23591;DHT22;11973;52.098;7.582;2024-02-21T14:54:58;11.90;99.90
23591;DHT22;11973;52.098;7.582;2024-02-21T14:57:25;11.90;99.90
23591;DHT22;11973;52.098;7.582;2024-02-21T14:59:50;11.90;99.90
23591;DHT22;11973;52.098;7.582;2024-02-21T15:02:25;11.90;99.90
23591;DHT22;11973;52.098;7.582;2024-02-21T15:04:50;11.90;99.90
23591;DHT22;11973;52.098;7.582;2024-02-21T15:07:17;11.90;99.90
23591;DHT22;11973;52.098;7.582;2024-02-21T15:09:49;11.90;99.90
23591;DHT22;11973;52.098;7.582;2024-02-21T15:12:18;11.80;99.90
23591;DHT22;11973;52.098;7.582;2024-02-21T15:15:02;11.80;99.90
23591;DHT22;11973;52.098;7.582;2024-02-21T15:17:37;11.70;99.90
23591;DHT22;11973;52.098;7.582;2024-02-21T15:20:07;11.70;99.90
23591;DHT22;11973;52.098;7.582;2024-02-21T15:22:47;11.70;99.90
23591;DHT22;11973;52.098;7.582;2024-02-21T15:25:16;11.60;99.90
23591;DHT22;11973;52.098;7.582;2024-02-21T15:27:44;11.60;99.90
23591;DHT22;11973;52.098;7.582;2024-02-21T15:30:14;11.60;99.90
23591;DHT22;11973;52.098;7.582;2024-02-21T15:33:11;11.50;99.90
23591;DHT22;11973;52.098;7.582;2024-02-21T15:35:37;11.50;99.90
23591;DHT22;11973;52.098;7.582;2024-02-21T15:38:07;11.40;99.90
23591;DHT22;11973;52.098;7.582;2024-02-21T15:40:40;11.40;99.90
23591;DHT22;11973;52.098;7.582;2024-02-21T15:43:09;11.30;99.90
23591;DHT22;11973;52.098;7.582;2024-02-21T15:45:38;11.30;99.90
23591;DHT22;11973;52.098;7.582;2024-02-21T15:48:08;11.20;99.90
23591;DHT22;11973;52.098;7.582;2024-02-21T15:50:58;11.20;99.90
23591;DHT22;11973;52.098;7.582;2024-02-21T15:53:24;11.10;99.90
23591;DHT22;11973;52.098;7.582;2024-02-21T15:55:50;11.10;99.90
23591;DHT22;11973;52.098;7.582;2024-02-21T15:58:16;11.10;99.90
23591;DHT22;11973;52.098;7.582;2024-02-21T16:00:45;11.00;99.90
23591;DHT22;11973;52.098;7.582;2024-02-21T16:03:10;11.00;99.90
23591;DHT22;11973;52.098;7.582;2024-02-21T16:05:36;10.90;99.90
23591;DHT22;11973;52.098;7.582;2024-02-21T16:08:02;10.90;99.90
23591;DHT22;11973;52.098;7.582;2024-02-21T16:10:28;10.90;99.90
23591;DHT22;11973;52.098;7.582;2024-02-21T16:12:54;10.80;99.90
23591;DHT22;11973;52.098;7.582;2024-02-21T16:15:20;10.80;99.90
23591;DHT22;11973;52.098;7.582;2024-02-21T16:17:45;10.80;99.90
23591;DHT22;11973;52.098;7.582;2024-02-21T16:20:12;10.80;99.90
23591;DHT22;11973;52.098;7.582;2024-02-21T16:22:41;10.70;99.90
23591;DHT22;11973;52.098;7.582;2024-02-21T16:25:08;10.70;99.90
23591;DHT22;11973;52.098;7.582;2024-02-21T16:27:34;10.70;99.90
23591;DHT22;11973;52.098;7.582;2024-02-21T16:30:00;10.70;99.90
23591;DHT22;11973;52.098;7.582;2024-02-21T16:32:26;10.70;99.90
23591;DHT22;11973;52.098;7.582;2024-02-21T16:34:53;10.70;99.90
23591;DHT22;11973;52.098;7.582;2024-02-21T16:37:19;10.60;99.90
23591;DHT22;11973;52.098;7.582;2024-02-21T16:39:45;10.60;99.90
23591;DHT22;11973;52.098;7.582;2024-02-21T16:42:11;10.60;99.90
23591;DHT22;11973;52.098;7.582;2024-02-21T16:44:37;10.60;99.90
23591;DHT22;11973;52.098;7.582;2024-02-21T16:47:04;10.60;99.90
23591;DHT22;11973;52.098;7.582;2024-02-21T16:49:29;10.50;99.90
23591;DHT22;11973;52.098;7.582;2024-02-21T16:51:56;10.50;99.90
23591;DHT22;11973;52.098;7.582;2024-02-21T16:54:23;10.50;99.90
23591;DHT22;11973;52.098;7.582;2024-02-21T16:56:49;10.50;99.90
23591;DHT22;11973;52.098;7.582;2024-02-21T16:59:15;10.50;99.90
23591;DHT22;11973;52.098;7.582;2024-02-21T17:01:40;10.50;99.90
23591;DHT22;11973;52.098;7.582;2024-02-21T17:04:07;10.50;99.90
23591;DHT22;11973;52.098;7.582;2024-02-21T17:06:33;10.40;99.90
23591;DHT22;11973;52.098;7.582;2024-02-21T17:09:00;10.40;99.90
23591;DHT22;11973;52.098;7.582;2024-02-21T17:11:29;10.40;99.90
23591;DHT22;11973;52.098;7.582;2024-02-21T17:13:54;10.40;99.90
23591;DHT22;11973;52.098;7.582;2024-02-21T17:16:20;10.40;99.90
23591;DHT22;11973;52.098;7.582;2024-02-21T17:18:46;10.40;99.90
23591;DHT22;11973;52.098;7.582;2024-02-21T17:21:13;10.40;99.90
23591;DHT22;11973;52.098;7.582;2024-02-21T17:23:39;10.40;99.90
23591;DHT22;11973;52.098;7.582;2024-02-21T17:26:05;10.40;99.90
23591;DHT22;11973;52.098;7.582;2024-02-21T17:28:32;10.40;99.90
23591;DHT22;11973;52.098;7.582;2024-02-21T17:30:58;10.40;99.90
23591;DHT22;11973;52.098;7.582;2024-02-21T17:33:23;10.40;99.90
23591;DHT22;11973;52.098;7.582;2024-02-21T17:35:49;10.40;99.90
23591;DHT22;11973;52.098;7.582;2024-02-21T17:38:16;10.40;99.90
23591;DHT22;11973;52.098;7.582;2024-02-21T17:40:44;10.30;99.90
23591;DHT22;11973;52.098;7.582;2024-02-21T17:43:10;10.30;99.90
23591;DHT22;11973;52.098;7.582;2024-02-21T17:45:38;10.30;99.90
23591;DHT22;11973;52.098;7.582;2024-02-21T17:48:06;10.30;99.90
23591;DHT22;11973;52.098;7.582;2024-02-21T17:50:32;10.20;99.90
23591;DHT22;11973;52.098;7.582;2024-02-21T17:52:57;10.20;99.90
23591;DHT22;11973;52.098;7.582;2024-02-21T17:55:25;10.20;99.90
23591;DHT22;11973;52.098;7.582;2024-02-21T17:57:51;10.10;99.90
23591;DHT22;11973;52.098;7.582;2024-02-21T18:00:17;10.10;99.90
23591;DHT22;11973;52.098;7.582;2024-02-21T18:02:45;10.10;99.90
23591;DHT22;11973;52.098;7.582;2024-02-21T18:05:11;10.00;99.90
23591;DHT22;11973;52.098;7.582;2024-02-21T18:07:43;10.00;99.90
23591;DHT22;11973;52.098;7.582;2024-02-21T18:10:09;10.00;99.90
23591;DHT22;11973;52.098;7.582;2024-02-21T18:12:34;10.00;99.90
23591;DHT22;11973;52.098;7.582;2024-02-21T18:15:00;9.90;99.90
23591;DHT22;11973;52.098;7.582;2024-02-21T18:17:26;9.90;99.90
23591;DHT22;11973;52.098;7.582;2024-02-21T18:19:52;9.80;99.90
23591;DHT22;11973;52.098;7.582;2024-02-21T18:22:18;9.80;99.90
23591;DHT22;11973;52.098;7.582;2024-02-21T18:24:43;9.70;99.90
23591;DHT22;11973;52.098;7.582;2024-02-21T18:27:09;9.70;99.90
23591;DHT22;11973;52.098;7.582;2024-02-21T18:29:35;9.70;99.90
23591;DHT22;11973;52.098;7.582;2024-02-21T18:32:03;9.70;99.90
23591;DHT22;11973;52.098;7.582;2024-02-21T18:34:28;9.60;99.90
23591;DHT22;11973;52.098;7.582;2024-02-21T18:36:54;9.60;99.90
23591;DHT22;11973;52.098;7.582;2024-02-21T18:39:20;9.60;99.90
23591;DHT22;11973;52.098;7.582;2024-02-21T18:41:48;9.50;99.90
23591;DHT22;11973;52.098;7.582;2024-02-21T18:44:14;9.50;99.90
23591;DHT22;11973;52.098;7.582;2024-02-21T18:46:40;9.50;99.90
23591;DHT22;11973;52.098;7.582;2024-02-21T18:49:06;9.40;99.90
23591;DHT22;11973;52.098;7.582;2024-02-21T18:51:32;9.40;99.90
23591;DHT22;11973;52.098;7.582;2024-02-21T18:53:58;9.40;99.90
23591;DHT22;11973;52.098;7.582;2024-02-21T18:56:24;9.40;99.90
23591;DHT22;11973;52.098;7.582;2024-02-21T18:58:54;9.40;99.90
23591;DHT22;11973;52.098;7.582;2024-02-21T19:01:21;9.30;99.90
23591;DHT22;11973;52.098;7.582;2024-02-21T19:03:47;9.30;99.90
23591;DHT22;11973;52.098;7.582;2024-02-21T19:06:13;9.30;99.90
23591;DHT22;11973;52.098;7.582;2024-02-21T19:08:42;9.30;99.90
23591;DHT22;11973;52.098;7.582;2024-02-21T19:11:08;9.20;99.90
23591;DHT22;11973;52.098;7.582;2024-02-21T19:13:34;9.20;99.90
23591;DHT22;11973;52.098;7.582;2024-02-21T19:16:00;9.20;99.90
23591;DHT22;11973;52.098;7.582;2024-02-21T19:18:26;9.20;99.90
23591;DHT22;11973;52.098;7.582;2024-02-21T19:20:52;9.20;99.90
23591;DHT22;11973;52.098;7.582;2024-02-21T19:23:18;9.20;99.90
23591;DHT22;11973;52.098;7.582;2024-02-21T19:25:45;9.10;99.90
23591;DHT22;11973;52.098;7.582;2024-02-21T19:28:11;9.10;99.90
23591;DHT22;11973;52.098;7.582;2024-02-21T19:30:40;9.10;99.90
23591;DHT22;11973;52.098;7.582;2024-02-21T19:33:06;9.10;99.90
23591;DHT22;11973;52.098;7.582;2024-02-21T19:35:41;9.10;99.90
23591;DHT22;11973;52.098;7.582;2024-02-21T19:38:08;9.10;99.90
23591;DHT22;11973;52.098;7.582;2024-02-21T19:40:35;9.10;99.90
23591;DHT22;11973;52.098;7.582;2024-02-21T19:43:01;9.10;99.90
23591;DHT22;11973;52.098;7.582;2024-02-21T19:45:27;9.10;99.90
23591;DHT22;11973;52.098;7.582;2024-02-21T19:47:54;9.00;99.90
23591;DHT22;11973;52.098;7.582;2024-02-21T19:50:20;9.00;99.90
23591;DHT22;11973;52.098;7.582;2024-02-21T19:52:55;9.00;99.90
23591;DHT22;11973;52.098;7.582;2024-02-21T19:55:21;9.00;99.90
23591;DHT22;11973;52.098;7.582;2024-02-21T19:57:47;9.00;99.90
23591;DHT22;11973;52.098;7.582;2024-02-21T20:00:15;9.00;99.90
23591;DHT22;11973;52.098;7.582;2024-02-21T20:02:44;9.00;99.90
23591;DHT22;11973;52.098;7.582;2024-02-21T20:05:10;8.90;99.90
23591;DHT22;11973;52.098;7.582;2024-02-21T20:07:36;8.90;99.90
23591;DHT22;11973;52.098;7.582;2024-02-21T20:10:05;8.90;99.90
23591;DHT22;11973;52.098;7.582;2024-02-21T20:12:36;8.90;99.90
23591;DHT22;11973;52.098;7.582;2024-02-21T20:15:06;8.90;99.90
23591;DHT22;11973;52.098;7.582;2024-02-21T20:17:35;8.90;99.90
23591;DHT22;11973;52.098;7.582;2024-02-21T20:20:01;8.90;99.90
23591;DHT22;11973;52.098;7.582;2024-02-21T20:22:29;8.90;99.90
23591;DHT22;11973;52.098;7.582;2024-02-21T20:24:55;8.90;99.90
23591;DHT22;11973;52.098;7.582;2024-02-21T20:27:24;8.80;99.90
23591;DHT22;11973;52.098;7.582;2024-02-21T20:29:51;8.80;99.90
23591;DHT22;11973;52.098;7.582;2024-02-21T20:32:21;8.90;99.90
23591;DHT22;11973;52.098;7.582;2024-02-21T20:34:51;8.90;99.90